Time;durP1;ratioP1;P1;durP2;ratioP2;P2;SDS_P1;SDS_P2;PMS_P1;PMS_P2;Temp;Humidity;BMP_temperature;BMP_pressure;BME280_temperature;BME280_humidity;BME280_pressure;Samples;Min_cycle;Max_cycle;Signal;HPM_P1;HPM_P2
2022/12/07 00:01:35;;;;;;;16.43;10.50;;;4.80;37.50;;;;;;4955721;28;20997;-73
2022/12/07 00:04:04;;;;;;;14.70;10.30;;;4.80;37.50;;;;;;4960193;28;20651;-73
2022/12/07 00:06:32;;;;;;;19.20;12.20;;;4.80;37.50;;;;;;4954266;28;20488;-73
2022/12/07 00:08:59;;;;;;;19.30;12.80;;;4.80;37.60;;;;;;4959925;28;20453;-73
2022/12/07 00:11:26;;;;;;;25.50;14.37;;;4.80;37.50;;;;;;4957844;28;20463;-73
2022/12/07 00:13:54;;;;;;;23.10;15.90;;;4.80;37.50;;;;;;4955312;28;20465;-73
2022/12/07 00:16:24;;;;;;;25.30;16.37;;;4.80;37.50;;;;;;4957528;28;20474;-73
2022/12/07 00:18:51;;;;;;;25.87;17.33;;;4.80;37.60;;;;;;4955746;28;20846;-73
2022/12/07 00:21:20;;;;;;;24.73;17.70;;;4.80;37.60;;;;;;4963372;28;20476;-73
2022/12/07 00:23:49;;;;;;;28.30;19.20;;;4.80;37.60;;;;;;4957066;28;20462;-73
2022/12/07 00:26:18;;;;;;;29.40;17.30;;;4.80;37.70;;;;;;4957234;28;20491;-73
2022/12/07 00:28:47;;;;;;;25.07;16.60;;;4.80;37.70;;;;;;4959954;28;20462;-74
2022/12/07 00:31:15;;;;;;;24.10;16.47;;;4.80;37.70;;;;;;4954523;28;20661;-73
2022/12/07 00:33:43;;;;;;;23.07;15.40;;;4.80;37.70;;;;;;4965524;28;20462;-73
2022/12/07 00:36:12;;;;;;;22.87;16.53;;;4.80;37.70;;;;;;4958235;28;20889;-72
2022/12/07 00:38:39;;;;;;;24.73;15.77;;;4.80;37.70;;;;;;4950866;28;20470;-73
2022/12/07 00:41:08;;;;;;;23.73;14.37;;;4.80;37.70;;;;;;4962200;28;20468;-72
2022/12/07 00:43:35;;;;;;;21.50;14.27;;;4.80;38.30;;;;;;4958133;28;20885;-73
2022/12/07 00:46:02;;;;;;;20.50;14.03;;;4.80;37.60;;;;;;4962088;28;20488;-72
2022/12/07 00:48:29;;;;;;;20.30;14.20;;;4.70;37.60;;;;;;4955645;28;20476;-73
2022/12/07 00:50:57;;;;;;;19.83;13.00;;;4.70;37.70;;;;;;4957669;28;20818;-73
2022/12/07 00:53:24;;;;;;;21.53;14.23;;;4.70;37.70;;;;;;4958018;28;20462;-73
2022/12/07 00:55:52;;;;;;;16.73;11.90;;;4.70;37.70;;;;;;4960957;28;20489;-73
2022/12/07 00:58:19;;;;;;;14.97;10.57;;;4.70;37.80;;;;;;4954844;28;20469;-73
2022/12/07 01:00:46;;;;;;;18.57;12.00;;;4.70;37.70;;;;;;4960302;28;20484;-73
2022/12/07 01:03:14;;;;;;;19.47;11.20;;;4.70;37.70;;;;;;4956358;28;20472;-73
2022/12/07 01:05:50;;;;;;;17.70;11.23;;;4.70;37.70;;;;;;4959783;28;20487;-72
2022/12/07 01:08:18;;;;;;;15.47;10.63;;;4.60;37.70;;;;;;4955361;28;20893;-73
2022/12/07 01:10:45;;;;;;;19.43;12.10;;;4.70;37.70;;;;;;4950081;28;20991;-73
2022/12/07 01:13:12;;;;;;;17.43;11.10;;;4.60;37.60;;;;;;4958699;28;20822;-73
2022/12/07 01:15:40;;;;;;;14.43;10.27;;;4.60;37.60;;;;;;4954388;28;20482;-73
2022/12/07 01:18:07;;;;;;;14.30;9.90;;;4.60;37.60;;;;;;4960185;28;20536;-72
2022/12/07 01:20:34;;;;;;;16.00;11.20;;;4.60;37.50;;;;;;4948147;28;20854;-73
2022/12/07 01:23:01;;;;;;;14.40;10.30;;;4.60;37.60;;;;;;4956722;28;20465;-73
2022/12/07 01:25:30;;;;;;;15.30;9.70;;;4.60;37.60;;;;;;4953538;28;21047;-73
2022/12/07 01:27:57;;;;;;;15.83;10.67;;;4.60;37.50;;;;;;4953670;28;20490;-73
2022/12/07 01:30:23;;;;;;;13.37;9.50;;;4.60;37.60;;;;;;4952070;28;20947;-73
2022/12/07 01:32:50;;;;;;;16.33;10.50;;;4.60;37.60;;;;;;4958318;28;20829;-73
2022/12/07 01:35:17;;;;;;;15.50;9.80;;;4.60;37.60;;;;;;4958086;28;20482;-73
2022/12/07 01:37:44;;;;;;;17.47;11.43;;;4.60;37.60;;;;;;4954942;28;20977;-73
2022/12/07 01:40:12;;;;;;;19.47;12.27;;;4.60;37.60;;;;;;4959394;28;20829;-72
2022/12/07 01:42:40;;;;;;;18.27;11.93;;;4.60;37.50;;;;;;4963064;28;20552;-72
2022/12/07 01:45:42;;;;;;;20.23;12.50;;;4.60;37.60;;;;;;4957236;28;20902;-73
2022/12/07 01:48:11;;;;;;;20.40;13.60;;;4.60;37.70;;;;;;4956918;28;20496;-73
2022/12/07 01:50:40;;;;;;;21.17;14.60;;;4.60;37.60;;;;;;4955387;28;20466;-73
2022/12/07 01:53:09;;;;;;;23.30;14.43;;;4.60;37.60;;;;;;4959616;28;20470;-73
2022/12/07 01:55:41;;;;;;;28.47;18.17;;;4.60;37.70;;;;;;4956202;28;20485;-73
2022/12/07 01:58:09;;;;;;;27.87;17.73;;;4.60;37.70;;;;;;4954815;28;20838;-73
2022/12/07 02:00:36;;;;;;;28.67;18.17;;;4.60;37.70;;;;;;4959137;28;20474;-73
2022/12/07 02:03:08;;;;;;;26.83;16.50;;;4.60;37.70;;;;;;4951598;28;20469;-73
2022/12/07 02:05:36;;;;;;;29.67;19.87;;;4.60;37.70;;;;;;4960609;28;20976;-73
2022/12/07 02:08:04;;;;;;;28.70;19.80;;;4.60;37.70;;;;;;4951784;28;20488;-73
2022/12/07 02:10:32;;;;;;;26.90;18.40;;;4.60;37.70;;;;;;4958623;28;20465;-73
2022/12/07 02:13:02;;;;;;;25.40;17.53;;;4.60;37.70;;;;;;4958617;28;20461;-73
2022/12/07 02:15:39;;;;;;;25.97;18.03;;;4.60;37.70;;;;;;4954961;28;21049;-73
2022/12/07 02:18:14;;;;;;;22.50;15.30;;;4.60;37.70;;;;;;4972513;23;20536;-76
2022/12/07 02:20:49;;;;;;;23.60;15.40;;;4.60;37.70;;;;;;4942342;28;20476;-74
2022/12/07 02:23:42;;;;;;;23.57;14.57;;;4.60;37.80;;;;;;4945473;28;20462;-74
2022/12/07 02:26:39;;;;;;;22.50;14.60;;;4.50;37.90;;;;;;4942000;28;20577;-74
2022/12/07 02:29:19;;;;;;;20.23;12.93;;;4.60;37.80;;;;;;4945945;28;20459;-73
2022/12/07 02:31:51;;;;;;;21.37;14.00;;;4.60;37.80;;;;;;4942543;28;20986;-73
2022/12/07 02:34:27;;;;;;;23.20;14.63;;;4.60;37.80;;;;;;4949172;28;20573;-73
2022/12/07 02:36:57;;;;;;;20.83;13.90;;;4.60;37.80;;;;;;4945695;28;20496;-74
2022/12/07 02:39:32;;;;;;;17.90;12.27;;;4.60;37.70;;;;;;4942867;29;20467;-73
2022/12/07 02:42:03;;;;;;;19.20;12.73;;;4.60;37.80;;;;;;4945531;28;20516;-74
2022/12/07 02:44:33;;;;;;;17.53;11.70;;;4.60;37.90;;;;;;4944682;29;20473;-73
2022/12/07 02:47:04;;;;;;;22.80;12.13;;;4.60;37.80;;;;;;4941916;29;20485;-73
2022/12/07 02:49:31;;;;;;;17.90;11.10;;;4.60;37.80;;;;;;4940517;28;20477;-73
2022/12/07 02:51:58;;;;;;;17.70;12.20;;;4.60;37.80;;;;;;4939831;28;20489;-73
2022/12/07 02:54:25;;;;;;;18.50;11.83;;;4.60;37.80;;;;;;4945804;28;20454;-73
2022/12/07 02:56:58;;;;;;;18.13;11.77;;;4.60;37.80;;;;;;4940828;29;20471;-74
2022/12/07 02:59:36;;;;;;;17.93;11.40;;;4.60;37.70;;;;;;4944758;28;20960;-73
2022/12/07 03:02:18;;;;;;;17.63;11.43;;;4.70;37.80;;;;;;4936031;28;21156;-73
2022/12/07 03:04:52;;;;;;;19.73;11.77;;;4.60;37.90;;;;;;4940992;28;20473;-74
2022/12/07 03:07:25;;;;;;;15.30;10.83;;;4.60;37.70;;;;;;4931578;28;20622;-73
2022/12/07 03:09:59;;;;;;;17.73;12.00;;;4.60;37.70;;;;;;4940319;28;20492;-74
2022/12/07 03:12:32;;;;;;;20.20;12.50;;;4.60;37.80;;;;;;4941023;28;20972;-74
2022/12/07 03:15:07;;;;;;;18.57;11.80;;;4.60;37.80;;;;;;4943165;28;20463;-75
2022/12/07 03:17:38;;;;;;;20.80;12.60;;;4.60;37.80;;;;;;4942818;28;20466;-73
2022/12/07 03:20:07;;;;;;;18.50;11.83;;;4.60;37.80;;;;;;4941725;28;20829;-74
2022/12/07 03:22:38;;;;;;;19.60;12.57;;;4.60;37.80;;;;;;4946424;28;20506;-73
2022/12/07 03:25:08;;;;;;;18.57;12.53;;;4.60;37.80;;;;;;4941625;28;20489;-73
2022/12/07 03:27:40;;;;;;;19.87;13.40;;;4.60;37.80;;;;;;4947241;28;20484;-74
2022/12/07 03:30:12;;;;;;;19.07;12.70;;;4.60;37.80;;;;;;4945116;28;20827;-74
2022/12/07 03:32:44;;;;;;;18.37;11.73;;;4.60;38.00;;;;;;4938864;28;20477;-73
2022/12/07 03:35:17;;;;;;;26.20;14.60;;;4.60;38.00;;;;;;4937798;28;20990;-73
2022/12/07 03:37:50;;;;;;;19.33;12.70;;;4.60;38.00;;;;;;4937385;28;20870;-73
2022/12/07 03:40:23;;;;;;;24.87;14.30;;;4.60;38.10;;;;;;4939058;28;20511;-73
2022/12/07 03:42:51;;;;;;;21.20;13.57;;;4.60;38.10;;;;;;4936790;28;20459;-74
2022/12/07 03:45:24;;;;;;;24.50;12.93;;;4.70;38.20;;;;;;4943657;28;20875;-73
2022/12/07 03:48:00;;;;;;;24.83;14.13;;;4.60;38.10;;;;;;4944629;28;20478;-73
2022/12/07 03:50:32;;;;;;;25.23;15.17;;;4.70;38.30;;;;;;4941909;28;20463;-73
2022/12/07 03:53:03;;;;;;;22.57;13.63;;;4.70;38.30;;;;;;4943317;28;20458;-73
2022/12/07 03:55:33;;;;;;;19.80;13.87;;;4.70;38.20;;;;;;4935077;28;20874;-73
2022/12/07 03:58:04;;;;;;;19.77;12.60;;;4.70;38.30;;;;;;4938596;29;20463;-74
2022/12/07 04:00:33;;;;;;;24.27;13.27;;;4.70;38.20;;;;;;4943552;28;20470;-73
2022/12/07 04:03:00;;;;;;;20.97;12.80;;;4.70;38.20;;;;;;4949142;28;20461;-74
2022/12/07 04:05:27;;;;;;;19.77;12.00;;;4.70;38.10;;;;;;4940710;28;20512;-74
2022/12/07 04:07:54;;;;;;;19.17;12.10;;;4.70;38.10;;;;;;4940376;28;20846;-73
2022/12/07 04:10:21;;;;;;;20.80;12.30;;;4.70;38.10;;;;;;4942836;28;20458;-73
2022/12/07 04:12:48;;;;;;;20.90;12.90;;;4.70;38.20;;;;;;4942206;28;20519;-73
2022/12/07 04:15:15;;;;;;;21.97;13.43;;;4.70;38.20;;;;;;4941389;28;20487;-74
2022/12/07 04:17:43;;;;;;;19.93;12.43;;;4.70;38.20;;;;;;4945692;28;20462;-73
2022/12/07 04:20:11;;;;;;;19.20;12.27;;;4.70;38.20;;;;;;4937051;28;21117;-73
2022/12/07 04:22:38;;;;;;;17.10;11.90;;;4.70;38.20;;;;;;4937582;28;20488;-73
2022/12/07 04:25:06;;;;;;;18.80;12.63;;;4.70;38.20;;;;;;4942225;29;20981;-73
2022/12/07 04:27:33;;;;;;;21.37;12.97;;;4.70;38.20;;;;;;4936751;28;20478;-74
2022/12/07 04:30:00;;;;;;;21.93;13.60;;;4.80;38.10;;;;;;4942640;28;20772;-74
2022/12/07 04:32:27;;;;;;;19.97;13.13;;;4.80;38.30;;;;;;4941129;28;20482;-73
2022/12/07 04:34:55;;;;;;;20.50;13.07;;;4.80;38.10;;;;;;4940513;28;20471;-72
2022/12/07 04:37:22;;;;;;;21.17;13.83;;;4.80;38.10;;;;;;4928868;28;20469;-74
2022/12/07 04:39:48;;;;;;;25.03;15.63;;;4.80;38.10;;;;;;4933579;28;20455;-74
2022/12/07 04:42:15;;;;;;;18.83;12.63;;;4.80;38.10;;;;;;4934366;28;20832;-73
2022/12/07 04:44:42;;;;;;;19.33;12.13;;;4.80;38.10;;;;;;4933808;28;20508;-74
2022/12/07 04:47:09;;;;;;;19.30;11.97;;;4.90;37.80;;;;;;4941289;28;20911;-74
2022/12/07 04:49:36;;;;;;;18.20;11.33;;;4.90;37.90;;;;;;4937260;28;20474;-74
2022/12/07 04:52:04;;;;;;;18.47;12.13;;;4.80;37.90;;;;;;4939888;29;20964;-74
2022/12/07 04:54:31;;;;;;;20.37;13.10;;;4.80;38.00;;;;;;4939184;29;20470;-74
2022/12/07 04:56:58;;;;;;;20.83;13.30;;;4.80;37.90;;;;;;4938650;29;20497;-73
2022/12/07 04:59:25;;;;;;;22.00;13.93;;;4.80;38.00;;;;;;4938229;29;20957;-72
2022/12/07 05:01:52;;;;;;;18.10;12.47;;;4.80;37.80;;;;;;4931551;28;21078;-73
2022/12/07 05:04:18;;;;;;;18.60;12.13;;;4.80;37.90;;;;;;4933395;28;21301;-73
2022/12/07 05:06:45;;;;;;;19.13;12.00;;;4.80;37.90;;;;;;4932052;29;20493;-74
2022/12/07 05:09:13;;;;;;;19.10;12.97;;;4.80;37.90;;;;;;4939390;28;20478;-73
2022/12/07 05:11:40;;;;;;;19.87;12.00;;;4.70;37.80;;;;;;4942846;28;20759;-73
2022/12/07 05:14:10;;;;;;;20.00;11.60;;;4.70;37.80;;;;;;4943126;29;20971;-73
2022/12/07 05:16:37;;;;;;;18.50;11.47;;;4.70;37.80;;;;;;4937451;28;21026;-74
2022/12/07 05:19:05;;;;;;;17.10;11.70;;;4.60;37.80;;;;;;4941570;28;20485;-74
2022/12/07 05:21:32;;;;;;;19.40;11.77;;;4.60;37.80;;;;;;4943363;29;20463;-73
2022/12/07 05:23:58;;;;;;;18.33;12.40;;;4.60;37.80;;;;;;4941232;29;20458;-73
2022/12/07 05:26:27;;;;;;;18.63;12.63;;;4.60;37.90;;;;;;4939093;29;20478;-74
2022/12/07 05:28:55;;;;;;;18.07;12.20;;;4.60;37.90;;;;;;4941500;29;20487;-74
2022/12/07 05:31:22;;;;;;;17.87;11.57;;;4.60;37.90;;;;;;4942420;28;20483;-73
2022/12/07 05:33:49;;;;;;;19.73;12.27;;;4.50;37.90;;;;;;4942412;28;20488;-73
2022/12/07 05:36:16;;;;;;;16.50;10.13;;;4.50;37.90;;;;;;4933798;29;20493;-73
2022/12/07 05:38:42;;;;;;;20.30;12.17;;;4.50;37.90;;;;;;4943870;28;20459;-74
2022/12/07 05:42:11;;;;;;;19.37;12.07;;;4.50;37.90;;;;;;4939790;28;20608;-75
2022/12/07 05:44:00;;;;;;;17.00;11.13;;;4.50;38.00;;;;;;4940979;29;20466;-73
2022/12/07 05:46:28;;;;;;;20.47;12.53;;;4.50;38.00;;;;;;4933777;28;21041;-73
2022/12/07 05:48:54;;;;;;;18.87;11.50;;;4.50;38.00;;;;;;4941054;28;20868;-75
2022/12/07 05:51:21;;;;;;;23.50;14.37;;;4.40;38.00;;;;;;4940382;28;20973;-75
2022/12/07 05:53:48;;;;;;;19.57;12.10;;;4.50;38.10;;;;;;4946894;28;20823;-73
2022/12/07 05:56:15;;;;;;;18.97;11.97;;;4.40;37.90;;;;;;4943563;29;20484;-73
2022/12/07 06:01:27;;;;;;;17.00;11.07;;;4.40;38.10;;;;;;4941974;28;20553;-73
2022/12/07 06:03:54;;;;;;;18.40;11.20;;;4.40;38.20;;;;;;4945441;29;20458;-73
2022/12/07 06:06:21;;;;;;;17.80;10.87;;;4.30;38.20;;;;;;4945169;28;20490;-74
2022/12/07 06:08:48;;;;;;;19.90;11.90;;;4.30;38.20;;;;;;4945832;28;20487;-73
2022/12/07 06:13:59;;;;;;;17.43;10.67;;;4.30;38.40;;;;;;4948328;29;20549;-72
2022/12/07 06:16:27;;;;;;;18.43;10.37;;;4.30;38.20;;;;;;4947681;28;20482;-72
2022/12/07 06:18:54;;;;;;;16.90;10.20;;;4.20;38.00;;;;;;4944612;28;20466;-73
2022/12/07 06:21:21;;;;;;;15.00;10.37;;;4.20;37.90;;;;;;4946677;29;20478;-74
2022/12/07 06:23:48;;;;;;;17.70;10.27;;;4.20;37.90;;;;;;4945740;28;20975;-73
2022/12/07 06:26:15;;;;;;;20.33;10.40;;;4.20;37.70;;;;;;4943491;28;20483;-73
2022/12/07 06:28:42;;;;;;;17.20;9.87;;;4.20;37.60;;;;;;4944508;28;20478;-73
2022/12/07 06:31:09;;;;;;;15.00;8.90;;;4.10;37.40;;;;;;4940515;28;21026;-73
2022/12/07 06:33:37;;;;;;;18.17;9.20;;;4.10;37.30;;;;;;4937866;29;20473;-73
2022/12/07 06:36:05;;;;;;;16.10;9.27;;;4.10;37.70;;;;;;4947828;28;20991;-73
2022/12/07 06:38:32;;;;;;;17.33;10.50;;;4.10;36.80;;;;;;4944003;28;20466;-73
2022/12/07 06:40:58;;;;;;;16.53;10.47;;;4.10;37.30;;;;;;4947802;29;20550;-72
2022/12/07 06:43:25;;;;;;;14.87;9.90;;;4.10;36.50;;;;;;4942312;28;20478;-73
2022/12/07 06:45:52;;;;;;;17.80;10.60;;;4.10;36.30;;;;;;4944185;28;20487;-73
2022/12/07 06:48:19;;;;;;;16.63;11.20;;;4.10;36.30;;;;;;4940212;28;21015;-72
2022/12/07 06:50:48;;;;;;;16.13;10.10;;;4.00;36.20;;;;;;4938823;28;20463;-73
2022/12/07 06:53:15;;;;;;;22.33;13.60;;;4.00;36.00;;;;;;4938216;28;20467;-73
2022/12/07 06:55:42;;;;;;;23.07;14.20;;;3.90;36.00;;;;;;4941442;28;20718;-73
2022/12/07 06:58:09;;;;;;;20.33;12.30;;;3.90;36.10;;;;;;4940868;28;20485;-72
2022/12/07 07:00:36;;;;;;;17.77;10.17;;;3.80;36.00;;;;;;4944882;28;20481;-72
2022/12/07 07:03:04;;;;;;;20.80;13.57;;;3.80;36.10;;;;;;4939241;28;20518;-73
2022/12/07 07:05:30;;;;;;;22.80;16.00;;;3.70;35.90;;;;;;4938589;28;20585;-72
2022/12/07 07:07:59;;;;;;;25.83;17.17;;;3.60;35.90;;;;;;4939956;28;20504;-73
2022/12/07 07:10:25;;;;;;;26.07;17.83;;;3.60;36.10;;;;;;4943556;28;20587;-73
2022/12/07 07:12:52;;;;;;;18.17;12.63;;;3.50;36.30;;;;;;4933931;28;20823;-73
2022/12/07 07:15:22;;;;;;;17.93;11.50;;;3.50;36.40;;;;;;4946342;28;20478;-73
2022/12/07 07:17:49;;;;;;;32.93;11.17;;;3.50;36.40;;;;;;4940434;28;21038;-73
2022/12/07 07:20:16;;;;;;;16.40;10.80;;;3.50;36.50;;;;;;4940218;28;20464;-73
2022/12/07 07:22:42;;;;;;;19.90;11.00;;;3.50;36.60;;;;;;4941011;28;20490;-73
2022/12/07 07:25:11;;;;;;;19.13;11.73;;;3.50;36.70;;;;;;4943217;28;20486;-73
2022/12/07 07:27:37;;;;;;;18.87;11.20;;;3.40;36.70;;;;;;4938420;28;20534;-73
2022/12/07 07:30:06;;;;;;;19.50;11.50;;;3.50;36.80;;;;;;4935603;28;20490;-73
2022/12/07 07:32:33;;;;;;;21.17;11.40;;;3.50;36.90;;;;;;4942996;28;21045;-75
2022/12/07 07:35:00;;;;;;;19.63;12.33;;;3.50;37.00;;;;;;4943678;28;20992;-73
2022/12/07 07:37:27;;;;;;;19.60;12.40;;;3.60;37.10;;;;;;4941540;28;20476;-73
2022/12/07 07:39:54;;;;;;;19.67;13.00;;;3.60;37.00;;;;;;4945110;28;20471;-73
2022/12/07 07:42:23;;;;;;;20.20;14.30;;;3.70;37.10;;;;;;4942295;28;20501;-73
2022/12/07 07:44:49;;;;;;;19.67;14.07;;;3.80;37.10;;;;;;4938217;28;20550;-72
2022/12/07 07:47:16;;;;;;;20.77;15.07;;;3.90;37.10;;;;;;4931426;28;20466;-73
2022/12/07 07:49:44;;;;;;;19.73;11.43;;;4.00;37.00;;;;;;4937124;28;20482;-73
2022/12/07 07:52:11;;;;;;;19.13;11.57;;;4.10;36.90;;;;;;4947649;28;20472;-75
2022/12/07 07:54:37;;;;;;;17.07;10.73;;;4.30;36.70;;;;;;4939504;28;20471;-73
2022/12/07 07:57:04;;;;;;;17.40;9.97;;;4.30;36.50;;;;;;4941047;28;20500;-74
2022/12/07 07:59:32;;;;;;;15.63;10.23;;;4.40;36.10;;;;;;4937894;28;20458;-75
2022/12/07 08:02:00;;;;;;;16.93;10.50;;;4.50;35.60;;;;;;4938724;28;20642;-75
2022/12/07 08:04:26;;;;;;;17.60;10.87;;;4.50;35.50;;;;;;4935629;28;20994;-72
2022/12/07 08:06:53;;;;;;;14.33;9.83;;;4.60;35.50;;;;;;4944906;29;20474;-73
2022/12/07 08:09:20;;;;;;;15.03;10.37;;;4.80;35.10;;;;;;4934975;28;20843;-74
2022/12/07 08:11:47;;;;;;;16.63;10.27;;;5.00;34.70;;;;;;4937789;28;20562;-73
2022/12/07 08:14:14;;;;;;;15.27;10.17;;;5.00;34.40;;;;;;4935597;28;20467;-73
2022/12/07 08:16:42;;;;;;;16.60;10.03;;;5.10;34.40;;;;;;4935470;28;20561;-74
2022/12/07 08:19:09;;;;;;;16.73;10.97;;;5.60;34.00;;;;;;4941019;28;21036;-75
2022/12/07 08:21:36;;;;;;;16.80;9.77;;;6.50;33.10;;;;;;4941258;28;20477;-74
2022/12/07 08:24:02;;;;;;;14.40;9.43;;;7.60;30.50;;;;;;4934428;28;20546;-74
2022/12/07 08:26:30;;;;;;;12.17;7.90;;;8.40;27.90;;;;;;4936159;28;21004;-75
2022/12/07 08:28:57;;;;;;;13.20;9.10;;;9.10;24.50;;;;;;4945560;28;20650;-75
2022/12/07 08:31:24;;;;;;;13.20;7.70;;;9.60;23.10;;;;;;4940808;28;20486;-74
2022/12/07 08:33:52;;;;;;;11.90;8.07;;;10.00;23.10;;;;;;4938999;29;20463;-74
2022/12/07 08:36:19;;;;;;;12.23;8.17;;;10.50;21.90;;;;;;4941565;28;20894;-74
2022/12/07 08:38:46;;;;;;;12.47;7.70;;;11.00;20.40;;;;;;4944509;28;20473;-74
2022/12/07 08:41:13;;;;;;;11.33;7.97;;;11.10;19.60;;;;;;4945715;28;20462;-74
2022/12/07 08:43:39;;;;;;;11.10;7.30;;;11.40;18.90;;;;;;4941204;28;21015;-74
2022/12/07 08:46:10;;;;;;;12.40;8.73;;;11.70;18.60;;;;;;4940896;28;20521;-75
2022/12/07 08:48:41;;;;;;;11.20;7.67;;;12.10;17.60;;;;;;4940831;28;20490;-75
2022/12/07 08:51:10;;;;;;;12.03;8.23;;;12.40;17.40;;;;;;4942896;28;20454;-75
2022/12/07 08:53:39;;;;;;;12.40;8.10;;;12.80;16.10;;;;;;4937936;28;20463;-75
2022/12/07 08:56:08;;;;;;;10.20;7.10;;;13.00;15.60;;;;;;4934410;28;20512;-75
2022/12/07 08:58:37;;;;;;;11.00;8.17;;;13.30;14.50;;;;;;4946581;28;20968;-74
2022/12/07 09:01:05;;;;;;;11.93;7.83;;;13.60;13.30;;;;;;4935534;28;20470;-75
2022/12/07 09:03:32;;;;;;;9.50;6.53;;;13.80;13.10;;;;;;4943185;28;20549;-75
2022/12/07 09:05:59;;;;;;;10.40;6.30;;;14.10;11.50;;;;;;4934822;28;20486;-75
2022/12/07 09:08:33;;;;;;;9.97;6.50;;;14.40;10.10;;;;;;4941878;28;20470;-75
2022/12/07 09:10:59;;;;;;;7.33;4.80;;;14.70;9.80;;;;;;4944843;29;20978;-75
2022/12/07 09:13:26;;;;;;;10.20;6.50;;;15.10;9.10;;;;;;4945165;29;20851;-75
2022/12/07 09:15:53;;;;;;;9.67;6.47;;;15.20;7.30;;;;;;4942589;29;20928;-74
2022/12/07 09:18:20;;;;;;;9.47;6.27;;;14.90;7.70;;;;;;4937369;28;20507;-75
2022/12/07 09:20:47;;;;;;;11.83;8.83;;;14.50;8.00;;;;;;4938871;28;21147;-75
2022/12/07 09:23:14;;;;;;;11.40;8.37;;;14.10;8.30;;;;;;4946644;28;20463;-75
2022/12/07 09:25:42;;;;;;;10.10;6.70;;;13.80;9.30;;;;;;4948933;28;20880;-75
2022/12/07 09:28:09;;;;;;;10.60;8.10;;;13.40;9.20;;;;;;4943567;28;20989;-75
2022/12/07 09:30:36;;;;;;;11.60;7.83;;;13.20;9.80;;;;;;4946679;28;20487;-74
2022/12/07 09:33:03;;;;;;;11.20;7.63;;;12.80;10.10;;;;;;4948550;29;20467;-75
2022/12/07 09:35:30;;;;;;;9.87;6.90;;;12.60;11.30;;;;;;4936645;28;20479;-75
2022/12/07 09:37:57;;;;;;;10.93;7.10;;;12.40;11.90;;;;;;4942274;28;20670;-75
2022/12/07 09:40:24;;;;;;;10.10;7.77;;;12.10;12.10;;;;;;4947152;29;20466;-75
2022/12/07 09:42:55;;;;;;;13.50;8.03;;;11.90;12.70;;;;;;4939364;28;20462;-75
2022/12/07 09:45:25;;;;;;;10.20;6.50;;;11.70;12.90;;;;;;4945602;28;20512;-75
2022/12/07 09:47:53;;;;;;;9.73;6.77;;;11.50;12.60;;;;;;4939710;28;20462;-75
2022/12/07 09:50:23;;;;;;;9.03;5.67;;;11.30;12.20;;;;;;4951215;28;20619;-75
2022/12/07 09:52:51;;;;;;;13.10;7.37;;;11.10;12.50;;;;;;4945569;28;21218;-74
2022/12/07 09:55:24;;;;;;;11.60;6.60;;;10.90;13.00;;;;;;4945187;28;21549;-73
2022/12/07 09:57:54;;;;;;;9.03;6.33;;;10.70;13.20;;;;;;4936579;28;20969;-74
2022/12/07 10:00:23;;;;;;;9.80;6.20;;;10.60;13.40;;;;;;4943390;28;20464;-74
2022/12/07 10:02:55;;;;;;;10.47;6.40;;;10.50;13.70;;;;;;4942067;28;20480;-74
2022/12/07 10:05:28;;;;;;;12.70;6.63;;;10.40;13.70;;;;;;4944116;28;20570;-74
2022/12/07 10:07:55;;;;;;;10.70;6.30;;;10.20;13.80;;;;;;4943859;28;20574;-74
2022/12/07 10:10:26;;;;;;;9.47;6.40;;;10.20;13.90;;;;;;4946722;28;20482;-74
2022/12/07 10:12:59;;;;;;;9.90;6.30;;;10.10;14.20;;;;;;4941744;28;20462;-74
2022/12/07 10:15:43;;;;;;;10.40;6.50;;;10.10;14.80;;;;;;4945655;28;20492;-75
2022/12/07 10:18:26;;;;;;;9.83;6.90;;;10.20;14.80;;;;;;4945353;28;21178;-75
2022/12/07 10:21:07;;;;;;;9.47;6.93;;;10.20;14.70;;;;;;4937705;28;20917;-73
2022/12/07 10:23:35;;;;;;;8.63;5.70;;;10.30;14.80;;;;;;4936006;28;20493;-74
2022/12/07 10:26:21;;;;;;;9.67;6.03;;;10.50;14.60;;;;;;4942359;28;20486;-75
2022/12/07 10:28:50;;;;;;;11.07;6.07;;;10.80;14.10;;;;;;4942634;28;20470;-74
2022/12/07 10:31:19;;;;;;;9.77;6.27;;;11.20;13.70;;;;;;4941806;28;20474;-74
2022/12/07 10:33:51;;;;;;;9.00;5.90;;;11.40;13.00;;;;;;4936166;28;20467;-75
2022/12/07 10:36:22;;;;;;;12.13;6.10;;;11.60;12.70;;;;;;4938969;28;20502;-74
2022/12/07 10:38:50;;;;;;;11.40;7.10;;;11.60;12.70;;;;;;4940097;28;20562;-73
2022/12/07 10:41:17;;;;;;;12.43;7.40;;;11.70;12.60;;;;;;4943552;28;20462;-74
2022/12/07 10:43:56;;;;;;;12.90;6.87;;;11.80;12.20;;;;;;4937485;28;20868;-74
2022/12/07 10:46:50;;;;;;;12.10;6.73;;;11.90;11.70;;;;;;4943702;28;20881;-75
2022/12/07 10:49:39;;;;;;;9.30;6.20;;;12.10;11.40;;;;;;4946721;28;20493;-74
2022/12/07 10:52:12;;;;;;;9.53;6.00;;;12.50;11.30;;;;;;4939312;28;20467;-74
2022/12/07 10:54:49;;;;;;;11.50;6.73;;;14.10;9.80;;;;;;4937362;28;20469;-74
2022/12/07 10:57:30;;;;;;;12.87;6.03;;;14.70;7.10;;;;;;4941968;28;20925;-74
2022/12/07 11:00:05;;;;;;;9.97;5.70;;;14.70;6.80;;;;;;4933916;29;20458;-75
2022/12/07 11:02:53;;;;;;;9.63;5.87;;;14.30;7.10;;;;;;4941214;28;20478;-74
2022/12/07 11:05:28;;;;;;;9.23;5.90;;;14.10;7.80;;;;;;4926566;28;20490;-74
2022/12/07 11:08:06;;;;;;;9.53;5.83;;;14.10;7.00;;;;;;4934787;28;20847;-75
2022/12/07 11:10:43;;;;;;;14.70;6.70;;;14.00;6.60;;;;;;4947831;28;20501;-75
2022/12/07 11:13:23;;;;;;;9.63;5.97;;;13.80;6.70;;;;;;4937412;28;20668;-75
2022/12/07 11:16:22;;;;;;;10.90;5.07;;;13.50;6.60;;;;;;4938369;29;20486;-74
2022/12/07 11:19:00;;;;;;;8.73;5.00;;;13.30;7.90;;;;;;4943307;28;20474;-76
2022/12/07 11:21:35;;;;;;;7.83;5.07;;;13.30;7.80;;;;;;4945013;28;20462;-75
2022/12/07 11:24:09;;;;;;;8.30;5.33;;;13.20;7.90;;;;;;4942482;28;20463;-75
2022/12/07 11:26:54;;;;;;;9.77;5.77;;;13.20;7.80;;;;;;4939254;28;20567;-75
2022/12/07 11:29:39;;;;;;;8.77;5.63;;;13.00;8.10;;;;;;4939691;28;20522;-76
2022/12/07 11:32:18;;;;;;;8.13;4.80;;;12.90;8.00;;;;;;4945734;28;20482;-75
2022/12/07 11:34:53;;;;;;;8.23;4.80;;;12.70;8.40;;;;;;4940468;29;20477;-75
2022/12/07 11:37:24;;;;;;;8.93;5.60;;;12.60;8.50;;;;;;4938741;28;20463;-74
2022/12/07 11:39:53;;;;;;;9.73;5.10;;;12.40;9.00;;;;;;4941878;28;20469;-75
2022/12/07 11:42:24;;;;;;;8.00;5.10;;;12.30;9.50;;;;;;4939241;28;20462;-75
2022/12/07 11:44:56;;;;;;;9.63;5.77;;;12.20;9.30;;;;;;4937498;28;20494;-75
2022/12/07 11:47:31;;;;;;;7.93;4.90;;;12.00;9.70;;;;;;4938707;28;21005;-75
2022/12/07 11:50:04;;;;;;;10.40;5.47;;;11.90;9.90;;;;;;4938052;28;20654;-75
2022/12/07 11:52:40;;;;;;;8.30;4.90;;;11.80;10.10;;;;;;4943309;28;20543;-74
2022/12/07 11:55:19;;;;;;;10.57;5.67;;;11.70;10.30;;;;;;4940774;28;20965;-75
2022/12/07 11:57:51;;;;;;;7.87;4.17;;;11.60;10.70;;;;;;4942864;29;21214;-74
2022/12/07 12:00:20;;;;;;;7.87;4.40;;;11.60;10.80;;;;;;4942739;28;20948;-74
2022/12/07 12:02:54;;;;;;;8.43;4.27;;;11.50;11.00;;;;;;4938106;28;20873;-74
2022/12/07 12:05:24;;;;;;;8.37;5.07;;;11.50;10.90;;;;;;4942495;29;20482;-75
2022/12/07 12:08:00;;;;;;;6.80;4.20;;;11.50;10.80;;;;;;4943041;29;20680;-74
2022/12/07 12:10:40;;;;;;;9.17;5.10;;;11.40;10.80;;;;;;4945607;28;20482;-74
2022/12/07 12:13:41;;;;;;;7.60;3.83;;;11.40;10.70;;;;;;4936523;28;20831;-74
2022/12/07 12:16:41;;;;;;;7.23;4.40;;;11.50;10.60;;;;;;4937256;29;20489;-73
2022/12/07 12:19:23;;;;;;;8.00;4.10;;;11.50;10.10;;;;;;4941575;28;20482;-74
2022/12/07 12:21:57;;;;;;;5.53;3.07;;;12.20;9.80;;;;;;4946698;29;20459;-75
2022/12/07 12:24:26;;;;;;;6.50;3.23;;;13.00;9.30;;;;;;4938909;28;20999;-75
2022/12/07 12:26:59;;;;;;;6.80;3.17;;;13.70;8.30;;;;;;4940687;29;20475;-75
2022/12/07 12:29:32;;;;;;;7.63;3.90;;;14.30;7.30;;;;;;4945446;29;20466;-75
2022/12/07 12:32:14;;;;;;;6.60;3.20;;;14.70;6.30;;;;;;4940818;28;20480;-74
2022/12/07 12:34:59;;;;;;;5.87;3.20;;;15.00;5.00;;;;;;4942759;28;20869;-75
2022/12/07 12:37:44;;;;;;;6.30;3.27;;;15.10;4.70;;;;;;4945569;29;20844;-74
2022/12/07 12:40:40;;;;;;;7.00;3.07;;;14.70;4.80;;;;;;4940096;28;20458;-74
2022/12/07 12:43:48;;;;;;;6.13;3.60;;;14.40;5.50;;;;;;4943307;28;20484;-74
2022/12/07 12:46:50;;;;;;;6.80;3.53;;;14.30;5.70;;;;;;4939594;28;20487;-75
2022/12/07 12:49:36;;;;;;;7.17;4.17;;;14.10;5.60;;;;;;4939113;28;20470;-74
2022/12/07 12:52:50;;;;;;;6.53;3.80;;;13.90;6.00;;;;;;4936915;29;20494;-75
2022/12/07 12:55:23;;;;;;;6.80;3.30;;;13.60;6.30;;;;;;4933757;28;20479;-75
2022/12/07 12:58:38;;;;;;;6.80;3.40;;;13.30;6.70;;;;;;4936522;28;20459;-76
2022/12/07 13:01:40;;;;;;;5.47;2.50;;;13.00;6.90;;;;;;4880119;29;21032;-75
2022/12/07 13:04:38;;;;;;;6.30;2.73;;;12.70;6.80;;;;;;4876301;29;20953;-75
2022/12/07 13:07:09;;;;;;;5.63;2.80;;;12.40;7.40;;;;;;4932073;28;20785;-75